Time;durP1;ratioP1;P1;durP2;ratioP2;P2;SDS_P1;SDS_P2;PMS_P1;PMS_P2;Temp;Humidity;BMP_temperature;BMP_pressure;BME280_temperature;BME280_humidity;BME280_pressure;Samples;Min_cycle;Max_cycle;Signal;HPM_P1;HPM_P2
2021/05/21 00:01:15;;;;;;;;;;;26.20;93.10;;;;;;5065927;28;19913;-52
2021/05/21 00:03:42;;;;;;;;;;;26.20;93.10;;;;;;5069170;28;19904;-53
2021/05/21 00:06:09;;;;;;;;;;;26.20;93.10;;;;;;5085863;28;19964;-51
2021/05/21 00:08:36;;;;;;;;;;;26.10;93.00;;;;;;5059091;28;19904;-49
2021/05/21 00:11:03;;;;;;;;;;;26.10;92.90;;;;;;5047593;28;20104;-52
2021/05/21 00:13:29;;;;;;;;;;;26.00;92.80;;;;;;5065316;28;20197;-50
2021/05/21 00:15:55;;;;;;;;;;;26.00;92.90;;;;;;5047648;28;19905;-52
2021/05/21 00:18:21;;;;;;;;;;;25.90;92.90;;;;;;5065781;28;19928;-51
2021/05/21 00:20:47;;;;;;;;;;;25.90;92.80;;;;;;5065956;28;19905;-52
2021/05/21 00:23:16;;;;;;;;;;;25.90;92.80;;;;;;5047493;28;19915;-52
2021/05/21 00:25:42;;;;;;;;;;;25.80;92.80;;;;;;5065175;28;19983;-50
2021/05/21 00:28:08;;;;;;;;;;;25.80;92.80;;;;;;5047318;28;19915;-47
2021/05/21 00:30:35;;;;;;;;;;;25.80;92.90;;;;;;5065467;28;19915;-49
2021/05/21 00:33:01;;;;;;;;;;;25.80;92.80;;;;;;5047097;28;20108;-54
2021/05/21 00:35:27;;;;;;;;;;;25.80;92.60;;;;;;5047544;28;19909;-51
2021/05/21 00:37:54;;;;;;;;;;;25.80;92.70;;;;;;5065759;28;20211;-51
2021/05/21 00:40:22;;;;;;;;;;;25.80;92.70;;;;;;5064507;28;20116;-51
2021/05/21 00:42:49;;;;;;;;;;;25.90;92.60;;;;;;5065541;28;19917;-50
2021/05/21 00:45:15;;;;;;;;;;;25.90;92.40;;;;;;5064678;28;20004;-50
2021/05/21 00:47:42;;;;;;;;;;;25.90;92.50;;;;;;5065102;28;19948;-52
2021/05/21 00:50:11;;;;;;;;;;;25.90;92.60;;;;;;5065374;28;20205;-53
2021/05/21 00:52:38;;;;;;;;;;;25.90;92.80;;;;;;5031090;28;19919;-51
2021/05/21 00:55:06;;;;;;;;;;;25.90;92.70;;;;;;5065023;28;20141;-53
2021/05/21 00:57:32;;;;;;;;;;;25.90;92.70;;;;;;5045821;28;19956;-53
2021/05/21 01:00:00;;;;;;;;;;;25.90;92.90;;;;;;5065324;28;19920;-52
2021/05/21 01:02:26;;;;;;;;;;;25.90;93.10;;;;;;5055976;28;19920;-50
2021/05/21 01:04:53;;;;;;;;;;;25.90;93.20;;;;;;5074111;28;19911;-52
2021/05/21 01:07:24;;;;;;;;;;;25.90;93.20;;;;;;5071157;28;20075;-50
2021/05/21 01:09:54;;;;;;;;;;;25.90;93.20;;;;;;5063860;28;19983;-50
2021/05/21 01:12:21;;;;;;;;;;;25.90;93.20;;;;;;5063159;28;19913;-50
2021/05/21 01:14:49;;;;;;;;;;;25.90;93.20;;;;;;5064640;28;20105;-50
2021/05/21 01:17:16;;;;;;;;;;;25.90;93.20;;;;;;5064580;28;19913;-49
2021/05/21 01:19:43;;;;;;;;;;;25.90;93.30;;;;;;5064872;28;19928;-48
2021/05/21 01:22:09;;;;;;;;;;;25.90;93.20;;;;;;5064197;28;19992;-51
2021/05/21 01:24:38;;;;;;;;;;;25.80;93.30;;;;;;5064367;28;19940;-52
2021/05/21 01:27:05;;;;;;;;;;;25.80;93.00;;;;;;5046757;28;20178;-49
2021/05/21 01:29:32;;;;;;;;;;;25.80;92.80;;;;;;5067158;28;20188;-47
2021/05/21 01:31:58;;;;;;;;;;;25.80;92.90;;;;;;5074291;28;19942;-51
2021/05/21 01:34:25;;;;;;;;;;;25.80;93.00;;;;;;5054811;28;20253;-50
2021/05/21 01:36:51;;;;;;;;;;;25.80;92.90;;;;;;5068294;28;19924;-49
2021/05/21 01:39:17;;;;;;;;;;;25.80;92.90;;;;;;5069015;28;20135;-51
2021/05/21 01:41:44;;;;;;;;;;;25.80;93.00;;;;;;5042882;28;19931;-52
2021/05/21 01:44:15;;;;;;;;;;;25.80;93.10;;;;;;5064795;28;19904;-50
2021/05/21 01:46:44;;;;;;;;;;;25.80;93.20;;;;;;5046776;28;19913;-51
2021/05/21 01:49:11;;;;;;;;;;;25.80;93.20;;;;;;5066401;28;19908;-49
2021/05/21 01:51:50;;;;;;;;;;;25.80;93.20;;;;;;5080520;28;19920;-51
2021/05/21 01:54:17;;;;;;;;;;;25.80;93.00;;;;;;5084131;28;20101;-51
2021/05/21 01:56:47;;;;;;;;;;;25.80;92.80;;;;;;5083774;28;19916;-50
2021/05/21 01:59:13;;;;;;;;;;;25.80;92.80;;;;;;5069696;28;19951;-51
2021/05/21 02:01:40;;;;;;;;;;;25.80;93.00;;;;;;5063638;28;19924;-48
2021/05/21 02:04:07;;;;;;;;;;;25.80;93.10;;;;;;5062575;28;19905;-48
2021/05/21 02:06:38;;;;;;;;;;;25.80;93.10;;;;;;5046137;28;19988;-45
2021/05/21 02:09:07;;;;;;;;;;;25.80;93.20;;;;;;5067724;28;19905;-46
2021/05/21 02:11:33;;;;;;;;;;;25.90;93.20;;;;;;5049895;28;19952;-47
2021/05/21 02:13:59;;;;;;;;;;;25.80;93.10;;;;;;5067776;28;20232;-48
2021/05/21 02:16:26;;;;;;;;;;;25.80;93.20;;;;;;5068078;28;19983;-48
2021/05/21 02:18:52;;;;;;;;;;;25.90;93.20;;;;;;5050141;28;19905;-48
2021/05/21 02:21:18;;;;;;;;;;;25.80;93.10;;;;;;5049809;28;19984;-49
2021/05/21 02:23:44;;;;;;;;;;;25.90;93.10;;;;;;5067588;28;19912;-47
2021/05/21 02:26:11;;;;;;;;;;;25.90;93.00;;;;;;5067624;28;19917;-46
2021/05/21 02:28:37;;;;;;;;;;;25.90;93.10;;;;;;5067554;28;19908;-48
2021/05/21 02:31:03;;;;;;;;;;;25.90;93.00;;;;;;5067256;28;19917;-49
2021/05/21 02:33:29;;;;;;;;;;;25.90;93.00;;;;;;5049308;28;19944;-45
2021/05/21 02:35:56;;;;;;;;;;;25.80;92.90;;;;;;5067396;28;19947;-50
2021/05/21 02:38:22;;;;;;;;;;;25.90;92.90;;;;;;5067413;28;19996;-45
2021/05/21 02:40:48;;;;;;;;;;;25.90;92.90;;;;;;5067322;28;20193;-53
2021/05/21 02:43:14;;;;;;;;;;;25.90;92.80;;;;;;5067044;28;19912;-48
2021/05/21 02:45:41;;;;;;;;;;;25.90;92.90;;;;;;5067046;28;19909;-45
2021/05/21 02:48:07;;;;;;;;;;;25.80;92.80;;;;;;5066742;28;19905;-45
2021/05/21 02:50:33;;;;;;;;;;;25.90;92.80;;;;;;5066936;28;19959;-43
2021/05/21 02:52:59;;;;;;;;;;;25.90;92.60;;;;;;5067349;28;19919;-48
2021/05/21 02:55:25;;;;;;;;;;;25.90;92.60;;;;;;5067018;28;19912;-46
2021/05/21 02:57:51;;;;;;;;;;;25.90;92.60;;;;;;5066864;28;20261;-48
2021/05/21 03:00:19;;;;;;;;;;;25.90;92.70;;;;;;5066758;28;19904;-48
2021/05/21 03:02:45;;;;;;;;;;;25.80;92.60;;;;;;5066896;28;19912;-45
2021/05/21 03:05:12;;;;;;;;;;;25.80;92.50;;;;;;5049037;28;19943;-47
2021/05/21 03:07:38;;;;;;;;;;;25.80;92.40;;;;;;5067100;28;19913;-47
2021/05/21 03:10:05;;;;;;;;;;;25.80;92.50;;;;;;5066587;28;19913;-45
2021/05/21 03:12:31;;;;;;;;;;;25.80;92.40;;;;;;5066743;28;19913;-47
2021/05/21 03:14:57;;;;;;;;;;;25.80;92.40;;;;;;5048805;28;19909;-47
2021/05/21 03:17:23;;;;;;;;;;;25.80;92.40;;;;;;5066560;28;20000;-48
2021/05/21 03:19:50;;;;;;;;;;;25.80;92.50;;;;;;5065888;28;19951;-46
2021/05/21 03:22:16;;;;;;;;;;;25.80;92.50;;;;;;5066656;28;19984;-50
2021/05/21 03:24:42;;;;;;;;;;;25.80;92.60;;;;;;5048659;28;19912;-48
2021/05/21 03:27:08;;;;;;;;;;;25.80;92.70;;;;;;5066863;28;20140;-48
2021/05/21 03:29:34;;;;;;;;;;;25.70;92.70;;;;;;5066241;28;19904;-52
2021/05/21 03:32:01;;;;;;;;;;;25.70;92.70;;;;;;5065935;28;19913;-49
2021/05/21 03:34:27;;;;;;;;;;;25.70;92.70;;;;;;5068668;28;20193;-47
2021/05/21 03:36:53;;;;;;;;;;;25.70;92.80;;;;;;5073876;28;19928;-50
2021/05/21 03:39:19;;;;;;;;;;;25.70;92.90;;;;;;5086079;28;19908;-47
2021/05/21 03:41:46;;;;;;;;;;;25.70;92.90;;;;;;5085888;28;19924;-47
2021/05/21 03:44:13;;;;;;;;;;;25.60;92.90;;;;;;5058054;28;19915;-46
2021/05/21 03:46:39;;;;;;;;;;;25.70;92.80;;;;;;5075978;28;19912;-48
2021/05/21 03:49:05;;;;;;;;;;;25.60;92.80;;;;;;5086115;28;19905;-49
2021/05/21 03:51:31;;;;;;;;;;;25.60;92.80;;;;;;5085992;28;19920;-53
2021/05/21 03:53:57;;;;;;;;;;;25.60;92.80;;;;;;5085847;28;19904;-47
2021/05/21 03:56:24;;;;;;;;;;;25.60;92.90;;;;;;5086180;28;19916;-47
2021/05/21 03:58:50;;;;;;;;;;;25.60;92.80;;;;;;5068039;28;20057;-45
2021/05/21 04:01:17;;;;;;;;;;;25.60;92.80;;;;;;5085351;28;19913;-46
2021/05/21 04:03:43;;;;;;;;;;;25.60;92.80;;;;;;5085644;28;19904;-53
2021/05/21 04:06:09;;;;;;;;;;;25.60;92.80;;;;;;5085815;28;19912;-43
2021/05/21 04:08:35;;;;;;;;;;;25.60;92.70;;;;;;5082302;28;19971;-48
2021/05/21 04:11:03;;;;;;;;;;;25.50;92.70;;;;;;5068519;28;19917;-48
2021/05/21 04:13:29;;;;;;;;;;;25.50;92.70;;;;;;5047709;28;19905;-46
2021/05/21 04:15:55;;;;;;;;;;;25.50;92.60;;;;;;5064840;28;19905;-50
2021/05/21 04:18:22;;;;;;;;;;;25.50;92.50;;;;;;5065532;28;19911;-46
2021/05/21 04:20:48;;;;;;;;;;;25.50;92.40;;;;;;5064924;28;20077;-52
2021/05/21 04:23:14;;;;;;;;;;;25.50;92.20;;;;;;5064127;28;19905;-50
2021/05/21 04:25:40;;;;;;;;;;;25.50;92.30;;;;;;5065184;28;19951;-52
2021/05/21 04:28:06;;;;;;;;;;;25.50;92.50;;;;;;5065301;28;20105;-48
2021/05/21 04:30:32;;;;;;;;;;;25.50;92.20;;;;;;5064424;28;20104;-54
2021/05/21 04:32:59;;;;;;;;;;;25.50;92.20;;;;;;5065546;28;19935;-51
2021/05/21 04:35:25;;;;;;;;;;;25.50;92.10;;;;;;5065130;28;19905;-47
2021/05/21 04:37:51;;;;;;;;;;;25.50;92.10;;;;;;5047551;28;19971;-45
2021/05/21 04:40:17;;;;;;;;;;;25.50;92.10;;;;;;5064998;28;20132;-46
2021/05/21 04:42:44;;;;;;;;;;;25.50;92.10;;;;;;5064842;28;20104;-45
2021/05/21 04:45:11;;;;;;;;;;;25.50;92.10;;;;;;5064947;28;20216;-47
2021/05/21 04:47:37;;;;;;;;;;;25.50;92.20;;;;;;5065174;28;19920;-45
2021/05/21 04:50:03;;;;;;;;;;;25.50;92.10;;;;;;5047140;28;19936;-47
2021/05/21 04:52:30;;;;;;;;;;;25.40;92.00;;;;;;5065293;28;19950;-46
2021/05/21 04:54:56;;;;;;;;;;;25.40;91.90;;;;;;5064798;28;20198;-49
2021/05/21 04:57:22;;;;;;;;;;;25.40;91.80;;;;;;5065250;28;20177;-46
2021/05/21 04:59:48;;;;;;;;;;;25.40;91.70;;;;;;5064765;28;19908;-46
2021/05/21 05:02:14;;;;;;;;;;;25.40;91.60;;;;;;5064915;28;20015;-51
2021/05/21 05:04:40;;;;;;;;;;;25.40;91.60;;;;;;5064687;28;19975;-47
2021/05/21 05:07:07;;;;;;;;;;;25.40;91.50;;;;;;5064920;28;20096;-48
2021/05/21 05:09:33;;;;;;;;;;;25.40;91.50;;;;;;5064630;28;20211;-53
2021/05/21 05:11:59;;;;;;;;;;;25.40;91.50;;;;;;5064381;28;19913;-48
2021/05/21 05:14:26;;;;;;;;;;;25.40;91.40;;;;;;5064545;28;20243;-46
2021/05/21 05:16:52;;;;;;;;;;;25.40;91.30;;;;;;5064688;28;19951;-45
2021/05/21 05:19:19;;;;;;;;;;;25.40;91.30;;;;;;5064209;28;19909;-47
2021/05/21 05:21:45;;;;;;;;;;;25.40;91.20;;;;;;5064711;28;19948;-49
2021/05/21 05:24:13;;;;;;;;;;;25.40;91.10;;;;;;5064414;28;19932;-47
2021/05/21 05:26:39;;;;;;;;;;;25.40;91.00;;;;;;5064437;28;20185;-46
2021/05/21 05:29:05;;;;;;;;;;;25.30;91.00;;;;;;5064285;28;19909;-46
2021/05/21 05:31:32;;;;;;;;;;;25.30;90.90;;;;;;5064358;28;19920;-47
2021/05/21 05:33:58;;;;;;;;;;;25.30;91.00;;;;;;5064158;28;19908;-47
2021/05/21 05:36:24;;;;;;;;;;;25.40;91.10;;;;;;5064350;28;19976;-47
2021/05/21 05:38:50;;;;;;;;;;;25.30;91.00;;;;;;5064280;28;19909;-49
2021/05/21 05:41:16;;;;;;;;;;;25.30;91.00;;;;;;5063868;28;19975;-46
2021/05/21 05:43:43;;;;;;;;;;;25.30;91.00;;;;;;5064034;28;19995;-47
2021/05/21 05:46:10;;;;;;;;;;;25.30;91.00;;;;;;5064286;28;19920;-49
2021/05/21 05:48:37;;;;;;;;;;;25.30;90.90;;;;;;5064065;28;19932;-48
2021/05/21 05:51:03;;;;;;;;;;;25.30;90.80;;;;;;5064115;28;19967;-48
2021/05/21 05:53:33;;;;;;;;;;;25.30;90.80;;;;;;5064179;28;19905;-47
2021/05/21 05:56:00;;;;;;;;;;;25.30;90.70;;;;;;5063996;28;19975;-48
2021/05/21 05:58:26;;;;;;;;;;;25.30;90.70;;;;;;5064164;28;19906;-46
2021/05/21 06:00:52;;;;;;;;;;;25.30;90.80;;;;;;5046180;28;19905;-49
2021/05/21 06:03:18;;;;;;;;;;;25.30;90.90;;;;;;5063958;28;20097;-50
2021/05/21 06:05:45;;;;;;;;;;;25.20;90.90;;;;;;5046124;28;19968;-47
2021/05/21 06:08:11;;;;;;;;;;;25.30;91.00;;;;;;5064017;28;20120;-47
2021/05/21 06:10:38;;;;;;;;;;;25.30;91.10;;;;;;5063782;28;19912;-51
2021/05/21 06:13:05;;;;;;;;;;;25.20;91.10;;;;;;5063928;28;19921;-49
2021/05/21 06:15:33;;;;;;;;;;;25.20;91.10;;;;;;5063799;28;19911;-47
2021/05/21 06:18:00;;;;;;;;;;;25.20;91.20;;;;;;5064173;28;19913;-46
2021/05/21 06:20:27;;;;;;;;;;;25.20;91.30;;;;;;5063967;28;20224;-49
2021/05/21 06:22:53;;;;;;;;;;;25.10;91.30;;;;;;5046268;28;19912;-47
2021/05/21 06:25:52;;;;;;;;;;;25.20;91.40;;;;;;5063652;28;19905;-48
2021/05/21 06:28:10;;;;;;;;;;;25.20;91.50;;;;;;5062342;28;19952;-46
2021/05/21 06:30:37;;;;;;;;;;;25.10;91.60;;;;;;5063077;28;19912;-51
2021/05/21 06:33:03;;;;;;;;;;;25.10;91.60;;;;;;5063450;28;20164;-48
2021/05/21 06:35:30;;;;;;;;;;;25.10;91.70;;;;;;5063649;28;19932;-50
2021/05/21 06:37:56;;;;;;;;;;;25.10;91.70;;;;;;5064169;28;19920;-47
2021/05/21 06:40:22;;;;;;;;;;;25.10;91.70;;;;;;5063530;28;20359;-46
2021/05/21 06:42:49;;;;;;;;;;;25.10;91.70;;;;;;5077494;28;19924;-50
2021/05/21 06:45:15;;;;;;;;;;;25.10;91.80;;;;;;5083630;28;19932;-46
2021/05/21 06:47:41;;;;;;;;;;;25.10;91.80;;;;;;5083854;28;19920;-46
2021/05/21 06:50:08;;;;;;;;;;;25.10;91.80;;;;;;5083712;28;19955;-46
2021/05/21 06:52:34;;;;;;;;;;;25.10;91.80;;;;;;5083922;28;19987;-47
2021/05/21 06:55:00;;;;;;;;;;;25.10;91.70;;;;;;5085403;28;19904;-51
2021/05/21 06:57:26;;;;;;;;;;;25.10;91.70;;;;;;5086979;28;19912;-52
2021/05/21 06:59:53;;;;;;;;;;;25.10;91.60;;;;;;5086922;28;19904;-49
2021/05/21 07:02:20;;;;;;;;;;;25.10;91.60;;;;;;5087191;28;19916;-49
2021/05/21 07:04:46;;;;;;;;;;;25.10;91.60;;;;;;5086933;28;19940;-45
2021/05/21 07:07:12;;;;;;;;;;;25.10;91.70;;;;;;5087208;28;19913;-48
2021/05/21 07:09:38;;;;;;;;;;;25.10;91.80;;;;;;5086594;28;19966;-49
2021/05/21 07:12:05;;;;;;;;;;;25.10;91.90;;;;;;5087033;28;19920;-47
2021/05/21 07:14:31;;;;;;;;;;;25.10;91.90;;;;;;5086914;28;19908;-46
2021/05/21 07:16:57;;;;;;;;;;;25.10;92.00;;;;;;5086939;28;19974;-47
2021/05/21 07:19:23;;;;;;;;;;;25.10;92.10;;;;;;5086656;28;19939;-49
2021/05/21 07:21:49;;;;;;;;;;;25.10;92.20;;;;;;5086794;28;19919;-51
2021/05/21 07:24:16;;;;;;;;;;;25.10;92.30;;;;;;5086629;28;19909;-48
2021/05/21 07:26:42;;;;;;;;;;;25.10;92.40;;;;;;5086721;28;19920;-45
2021/05/21 07:29:08;;;;;;;;;;;25.10;92.50;;;;;;5086391;28;20164;-45
2021/05/21 07:31:34;;;;;;;;;;;25.10;92.60;;;;;;5086554;28;20193;-48
2021/05/21 07:34:01;;;;;;;;;;;25.10;92.60;;;;;;5086606;28;20155;-52
2021/05/21 07:36:32;;;;;;;;;;;25.10;92.60;;;;;;5086434;28;19912;-51
2021/05/21 07:38:58;;;;;;;;;;;25.00;92.60;;;;;;5086516;28;19904;-49
2021/05/21 07:41:25;;;;;;;;;;;25.00;92.60;;;;;;5085780;28;19997;-47
2021/05/21 07:43:52;;;;;;;;;;;25.00;92.70;;;;;;5086456;28;19905;-48
2021/05/21 07:46:20;;;;;;;;;;;25.10;92.60;;;;;;5086366;28;20082;-47
2021/05/21 07:48:46;;;;;;;;;;;25.00;92.60;;;;;;5086104;28;19908;-50
2021/05/21 07:51:12;;;;;;;;;;;25.00;92.50;;;;;;5085977;28;19995;-46
2021/05/21 07:53:38;;;;;;;;;;;25.00;92.50;;;;;;5085870;28;19976;-45
2021/05/21 07:56:05;;;;;;;;;;;25.00;92.40;;;;;;5085908;28;19934;-51
2021/05/21 07:58:31;;;;;;;;;;;25.10;92.40;;;;;;5085889;28;20096;-49
2021/05/21 08:00:58;;;;;;;;;;;25.00;92.30;;;;;;5086085;28;20985;-47
2021/05/21 08:03:24;;;;;;;;;;;25.00;92.30;;;;;;5085791;28;19905;-48
2021/05/21 08:05:50;;;;;;;;;;;25.10;92.00;;;;;;5085941;28;19905;-50
2021/05/21 08:08:21;;;;;;;;;;;25.10;92.00;;;;;;5085710;28;19905;-49
2021/05/21 08:10:48;;;;;;;;;;;25.10;91.90;;;;;;5085518;28;19979;-46
2021/05/21 08:13:14;;;;;;;;;;;25.10;91.90;;;;;;5085658;28;19904;-54
2021/05/21 08:15:40;;;;;;;;;;;25.10;91.70;;;;;;5085429;28;19963;-49
2021/05/21 08:18:06;;;;;;;;;;;25.00;91.60;;;;;;5085185;28;19905;-46
2021/05/21 08:20:32;;;;;;;;;;;25.10;91.50;;;;;;5085503;28;19904;-53
2021/05/21 08:22:59;;;;;;;;;;;25.10;91.40;;;;;;5085786;28;19913;-52
2021/05/21 08:25:25;;;;;;;;;;;25.10;91.40;;;;;;5085292;28;19904;-47
2021/05/21 08:27:53;;;;;;;;;;;25.10;91.30;;;;;;5085861;28;19935;-47
2021/05/21 08:30:20;;;;;;;;;;;25.10;91.20;;;;;;5085146;28;20144;-47
2021/05/21 08:32:48;;;;;;;;;;;25.10;91.30;;;;;;5085625;28;20105;-47
2021/05/21 08:35:15;;;;;;;;;;;25.10;91.30;;;;;;5085154;28;19943;-52
2021/05/21 08:37:41;;;;;;;;;;;25.10;91.30;;;;;;5085700;28;19919;-46
2021/05/21 08:40:08;;;;;;;;;;;25.10;91.40;;;;;;5084966;28;19904;-47
2021/05/21 08:42:39;;;;;;;;;;;25.10;91.30;;;;;;5084875;28;19923;-49
2021/05/21 08:45:09;;;;;;;;;;;25.10;91.30;;;;;;5084983;28;20254;-46
2021/05/21 08:47:36;;;;;;;;;;;25.10;91.30;;;;;;5085193;28;20089;-48
2021/05/21 08:50:07;;;;;;;;;;;25.10;91.30;;;;;;5084814;28;19912;-49
2021/05/21 08:52:34;;;;;;;;;;;25.10;91.30;;;;;;5085271;28;19919;-48
2021/05/21 08:55:00;;;;;;;;;;;25.10;91.20;;;;;;5084801;28;19904;-46
2021/05/21 08:57:30;;;;;;;;;;;25.10;91.10;;;;;;5085290;28;20050;-45
2021/05/21 08:59:56;;;;;;;;;;;25.10;91.10;;;;;;5084812;28;19904;-48
2021/05/21 09:02:24;;;;;;;;;;;25.10;91.10;;;;;;5084910;28;19925;-47
2021/05/21 09:04:56;;;;;;;;;;;25.10;91.10;;;;;;5084734;28;19912;-51
2021/05/21 09:07:31;;;;;;;;;;;25.10;91.20;;;;;;5084995;28;19919;-47
2021/05/21 09:09:58;;;;;;;;;;;25.10;91.20;;;;;;5084495;28;19904;-48
2021/05/21 09:12:36;;;;;;;;;;;25.10;91.10;;;;;;5084883;28;19913;-46
2021/05/21 09:15:18;;;;;;;;;;;25.10;91.10;;;;;;5084386;28;19911;-48
2021/05/21 09:18:04;;;;;;;;;;;25.10;91.10;;;;;;5084543;28;20192;-47
2021/05/21 09:20:41;;;;;;;;;;;25.10;91.10;;;;;;5084447;28;19905;-47
2021/05/21 09:23:07;;;;;;;;;;;25.10;91.30;;;;;;5084399;28;19913;-46
2021/05/21 09:25:35;;;;;;;;;;;25.10;91.30;;;;;;5084277;28;19958;-47
2021/05/21 09:28:01;;;;;;;;;;;25.10;91.30;;;;;;5084289;28;19912;-46
2021/05/21 09:30:27;;;;;;;;;;;25.10;91.40;;;;;;5084410;28;20108;-45
2021/05/21 09:33:03;;;;;;;;;;;25.00;91.40;;;;;;5084959;28;19913;-46
2021/05/21 09:35:30;;;;;;;;;;;25.00;91.40;;;;;;5083775;28;20002;-50
2021/05/21 09:37:56;;;;;;;;;;;25.00;91.40;;;;;;5084349;28;20140;-46
2021/05/21 09:40:23;;;;;;;;;;;25.10;91.50;;;;;;5084183;28;19951;-51
2021/05/21 09:42:55;;;;;;;;;;;25.00;91.50;;;;;;5084169;28;19924;-52
2021/05/21 09:45:23;;;;;;;;;;;25.00;91.60;;;;;;5084083;28;19935;-53
2021/05/21 09:47:51;;;;;;;;;;;25.00;91.70;;;;;;5084737;28;19948;-50
2021/05/21 09:50:17;;;;;;;;;;;25.00;91.70;;;;;;5084055;28;19912;-47
2021/05/21 09:52:47;;;;;;;;;;;25.00;91.70;;;;;;5084485;28;19909;-48
2021/05/21 09:55:14;;;;;;;;;;;25.00;91.70;;;;;;5084119;28;20139;-50
2021/05/21 09:57:41;;;;;;;;;;;25.00;91.80;;;;;;5084595;28;19908;-50
2021/05/21 10:00:09;;;;;;;;;;;25.00;91.80;;;;;;5084234;28;19972;-49
2021/05/21 10:02:35;;;;;;;;;;;25.00;91.90;;;;;;5084587;28;19915;-53
2021/05/21 10:05:03;;;;;;;;;;;24.90;92.00;;;;;;5083969;28;19909;-50
2021/05/21 10:07:29;;;;;;;;;;;24.90;92.00;;;;;;5084377;28;19914;-52
2021/05/21 10:09:56;;;;;;;;;;;24.90;92.00;;;;;;5084152;28;20216;-48
2021/05/21 10:12:24;;;;;;;;;;;24.90;92.10;;;;;;5084003;28;19909;-49
2021/05/21 10:14:51;;;;;;;;;;;24.90;92.20;;;;;;5083770;28;19972;-47
2021/05/21 10:17:22;;;;;;;;;;;24.90;92.30;;;;;;5084172;28;20089;-47
2021/05/21 10:19:50;;;;;;;;;;;24.90;92.20;;;;;;5083956;28;20240;-47
2021/05/21 10:22:19;;;;;;;;;;;24.90;92.10;;;;;;5084039;28;20188;-46
2021/05/21 10:24:45;;;;;;;;;;;24.90;92.00;;;;;;5083892;28;19909;-49
2021/05/21 10:27:19;;;;;;;;;;;24.90;91.90;;;;;;5084245;28;19915;-54
2021/05/21 10:29:50;;;;;;;;;;;24.90;91.90;;;;;;5085348;28;19966;-47
2021/05/21 10:32:16;;;;;;;;;;;24.90;91.90;;;;;;5087795;28;19920;-45
2021/05/21 10:34:44;;;;;;;;;;;24.90;91.80;;;;;;5087578;28;20085;-48
2021/05/21 10:37:24;;;;;;;;;;;25.00;91.80;;;;;;5087722;28;19915;-47
2021/05/21 10:40:21;;;;;;;;;;;24.90;91.80;;;;;;5087592;28;19909;-46
2021/05/21 10:42:48;;;;;;;;;;;25.00;91.70;;;;;;5016728;28;19988;-46
2021/05/21 10:45:25;;;;;;;;;;;25.00;91.70;;;;;;5087438;28;19963;-47
2021/05/21 10:48:06;;;;;;;;;;;25.00;91.70;;;;;;5087734;28;19912;-47
2021/05/21 10:50:36;;;;;;;;;;;25.00;91.70;;;;;;5087424;28;19912;-45
2021/05/21 10:53:05;;;;;;;;;;;25.00;91.70;;;;;;5087769;28;19938;-47
2021/05/21 10:55:47;;;;;;;;;;;25.00;91.70;;;;;;5087174;28;19908;-46
2021/05/21 10:58:21;;;;;;;;;;;25.00;91.80;;;;;;5086891;28;19920;-48
2021/05/21 11:01:06;;;;;;;;;;;25.00;91.80;;;;;;5087097;28;19911;-49
2021/05/21 11:03:52;;;;;;;;;;;25.00;91.80;;;;;;5087074;28;19923;-45
2021/05/21 11:06:22;;;;;;;;;;;25.00;91.90;;;;;;5086954;28;19916;-45
2021/05/21 11:08:48;;;;;;;;;;;25.00;91.90;;;;;;5087079;28;20250;-44
2021/05/21 11:11:15;;;;;;;;;;;25.00;91.90;;;;;;5086959;28;19920;-45
2021/05/21 11:13:42;;;;;;;;;;;25.00;92.00;;;;;;5069006;28;19915;-49
2021/05/21 11:16:12;;;;;;;;;;;25.00;92.20;;;;;;5086995;28;19908;-48
2021/05/21 11:18:48;;;;;;;;;;;25.10;92.00;;;;;;5086642;28;19912;-48
2021/05/21 11:21:20;;;;;;;;;;;25.10;92.00;;;;;;5086704;28;19909;-49
2021/05/21 11:23:46;;;;;;;;;;;25.10;91.90;;;;;;5086792;28;19913;-49
2021/05/21 11:26:17;;;;;;;;;;;25.10;91.90;;;;;;5086815;28;19909;-49
2021/05/21 11:28:43;;;;;;;;;;;25.10;91.90;;;;;;5086431;28;19910;-51
2021/05/21 11:31:09;;;;;;;;;;;25.10;91.80;;;;;;5086587;28;20223;-51
2021/05/21 11:33:36;;;;;;;;;;;25.10;91.80;;;;;;5086385;28;19947;-46
2021/05/21 11:36:05;;;;;;;;;;;25.20;91.80;;;;;;5086427;28;19909;-49
2021/05/21 11:38:31;;;;;;;;;;;25.10;91.80;;;;;;5086298;28;19908;-47
2021/05/21 11:40:58;;;;;;;;;;;25.20;91.80;;;;;;5085941;28;20077;-46
2021/05/21 11:43:25;;;;;;;;;;;25.20;91.80;;;;;;5086019;28;20219;-48
2021/05/21 11:45:52;;;;;;;;;;;25.20;91.80;;;;;;5086172;28;19905;-49
2021/05/21 11:48:35;;;;;;;;;;;25.20;91.90;;;;;;5086047;28;19915;-53
2021/05/21 11:51:02;;;;;;;;;;;25.20;91.90;;;;;;5086059;28;19921;-50
2021/05/21 11:53:31;;;;;;;;;;;25.20;91.90;;;;;;5086056;28;19904;-47
2021/05/21 11:55:57;;;;;;;;;;;25.20;91.80;;;;;;5085894;28;19911;-49
2021/05/21 11:58:24;;;;;;;;;;;25.30;91.80;;;;;;5086154;28;20092;-48
2021/05/21 12:01:00;;;;;;;;;;;25.30;91.80;;;;;;5085819;28;19968;-46
2021/05/21 12:03:39;;;;;;;;;;;25.30;91.80;;;;;;5085773;28;19904;-45
2021/05/21 12:06:06;;;;;;;;;;;25.30;91.90;;;;;;5086008;28;19912;-50
2021/05/21 12:08:32;;;;;;;;;;;25.30;91.90;;;;;;5085695;28;19904;-48
2021/05/21 12:10:59;;;;;;;;;;;25.30;92.00;;;;;;5085832;28;19923;-51
2021/05/21 12:13:32;;;;;;;;;;;25.30;92.00;;;;;;5085648;28;19912;-50
2021/05/21 12:16:14;;;;;;;;;;;25.30;92.10;;;;;;5085370;28;19931;-50
2021/05/21 12:18:41;;;;;;;;;;;25.30;92.10;;;;;;5085396;28;19905;-46
2021/05/21 12:21:07;;;;;;;;;;;25.40;92.20;;;;;;5085212;28;19983;-49
2021/05/21 12:23:37;;;;;;;;;;;25.40;92.30;;;;;;5085303;28;19961;-47
2021/05/21 12:26:04;;;;;;;;;;;25.40;92.20;;;;;;5085486;28;19913;-50
2021/05/21 12:28:31;;;;;;;;;;;25.40;92.30;;;;;;5085281;28;19904;-46
2021/05/21 12:31:02;;;;;;;;;;;25.40;92.30;;;;;;5085170;28;20185;-47
2021/05/21 12:33:29;;;;;;;;;;;25.40;92.30;;;;;;5085069;28;20132;-44
2021/05/21 12:36:01;;;;;;;;;;;25.50;92.40;;;;;;5084956;28;19940;-45
2021/05/21 12:38:28;;;;;;;;;;;25.50;92.30;;;;;;5085306;28;19950;-45
2021/05/21 12:40:55;;;;;;;;;;;25.50;92.30;;;;;;5085140;28;19904;-54
2021/05/21 12:43:21;;;;;;;;;;;25.50;92.30;;;;;;5084465;28;19913;-52
2021/05/21 12:46:02;;;;;;;;;;;25.50;92.40;;;;;;5083346;28;19908;-58
2021/05/21 12:48:35;;;;;;;;;;;25.60;92.50;;;;;;5084900;28;19911;-50
2021/05/21 12:51:19;;;;;;;;;;;25.60;92.50;;;;;;5084775;28;19962;-55
2021/05/21 12:53:46;;;;;;;;;;;25.60;92.50;;;;;;5076073;28;20267;-51
2021/05/21 12:56:31;;;;;;;;;;;25.70;92.50;;;;;;5084760;28;19912;-53
2021/05/21 12:58:57;;;;;;;;;;;25.70;92.50;;;;;;5084842;28;19908;-55
2021/05/21 13:01:23;;;;;;;;;;;25.70;92.40;;;;;;5084878;28;19920;-51
2021/05/21 13:03:54;;;;;;;;;;;25.70;92.40;;;;;;5084943;28;19976;-50
2021/05/21 13:06:31;;;;;;;;;;;25.80;92.40;;;;;;5072871;28;19912;-52
2021/05/21 13:09:01;;;;;;;;;;;25.80;92.40;;;;;;5063396;28;19976;-50
2021/05/21 13:11:28;;;;;;;;;;;25.80;92.40;;;;;;5064320;28;19917;-50
2021/05/21 13:13:58;;;;;;;;;;;25.80;92.40;;;;;;5048316;28;19912;-49
2021/05/21 13:16:24;;;;;;;;;;;25.80;92.40;;;;;;5064585;28;19909;-54
2021/05/21 13:18:51;;;;;;;;;;;25.80;92.50;;;;;;5064525;28;20231;-50
2021/05/21 13:21:17;;;;;;;;;;;25.90;92.50;;;;;;5064256;28;19939;-52
2021/05/21 13:23:55;;;;;;;;;;;25.90;92.50;;;;;;5064824;28;19913;-50
2021/05/21 13:26:22;;;;;;;;;;;25.90;92.50;;;;;;5064146;28;19909;-54
2021/05/21 13:28:48;;;;;;;;;;;25.90;92.50;;;;;;5066680;28;19954;-51
2021/05/21 13:31:14;;;;;;;;;;;26.00;92.60;;;;;;5046057;28;20215;-52
2021/05/21 13:33:40;;;;;;;;;;;26.00;92.50;;;;;;5064177;28;19972;-50
2021/05/21 13:36:06;;;;;;;;;;;26.00;92.70;;;;;;5063997;28;19955;-55
2021/05/21 13:38:33;;;;;;;;;;;26.00;92.50;;;;;;5054568;28;19921;-53
2021/05/21 13:40:59;;;;;;;;;;;26.00;92.50;;;;;;5064231;28;19924;-51
2021/05/21 13:43:25;;;;;;;;;;;26.00;92.40;;;;;;5077963;28;19912;-50
2021/05/21 13:45:51;;;;;;;;;;;26.10;92.50;;;;;;5080082;28;19912;-51
2021/05/21 13:48:17;;;;;;;;;;;26.10;92.50;;;;;;5064123;28;19940;-50
2021/05/21 13:50:46;;;;;;;;;;;26.20;92.50;;;;;;5054788;28;19921;-52
2021/05/21 13:53:12;;;;;;;;;;;26.20;92.50;;;;;;5073007;28;19943;-53
2021/05/21 13:55:40;;;;;;;;;;;26.30;92.60;;;;;;5081266;28;19908;-53
2021/05/21 13:58:06;;;;;;;;;;;26.40;92.50;;;;;;5063892;28;19940;-53
2021/05/21 14:00:32;;;;;;;;;;;26.50;92.70;;;;;;5063853;28;19968;-53
2021/05/21 14:02:59;;;;;;;;;;;26.60;92.80;;;;;;5065056;28;19916;-52
2021/05/21 14:05:25;;;;;;;;;;;26.70;92.50;;;;;;5067685;28;19947;-54
2021/05/21 14:07:51;;;;;;;;;;;26.80;92.40;;;;;;5068494;28;19947;-53
2021/05/21 14:10:18;;;;;;;;;;;26.90;92.30;;;;;;5067910;28;19913;-52
2021/05/21 14:12:45;;;;;;;;;;;26.90;92.40;;;;;;5068411;28;19909;-52
2021/05/21 14:15:11;;;;;;;;;;;27.00;92.30;;;;;;5072298;28;19913;-51
2021/05/21 14:17:37;;;;;;;;;;;27.00;92.20;;;;;;5068134;28;19976;-52
2021/05/21 14:20:04;;;;;;;;;;;27.00;92.50;;;;;;5067800;28;19913;-53